createdAt,value
2018-01-18T00:01:59.808Z,12.47
2018-01-18T00:04:27.505Z,11.67
2018-01-18T00:06:55.178Z,18.47
2018-01-18T00:09:23.840Z,16.67
2018-01-18T00:11:51.512Z,15.17
2018-01-18T00:14:19.207Z,17.23
2018-01-18T00:16:47.313Z,25.40
2018-01-18T00:19:15.020Z,19.10
2018-01-18T00:21:42.679Z,19.03
2018-01-18T00:24:10.361Z,21.10
2018-01-18T00:26:38.014Z,23.53
2018-01-18T00:29:05.700Z,19.57
2018-01-18T00:31:33.374Z,19.13
2018-01-18T00:34:01.024Z,19.50
2018-01-18T00:36:29.489Z,25.67
2018-01-18T00:38:57.211Z,22.30
2018-01-18T00:41:24.955Z,19.90
2018-01-18T00:43:52.657Z,17.73
2018-01-18T00:46:20.344Z,21.63
2018-01-18T00:48:48.011Z,22.80
2018-01-18T00:51:15.660Z,20.93
2018-01-18T00:53:43.356Z,24.17
2018-01-18T00:56:10.989Z,25.90
2018-01-18T00:58:38.643Z,26.03
2018-01-18T01:01:07.242Z,19.80
2018-01-18T01:03:35.700Z,22.80
2018-01-18T01:06:03.375Z,18.23
2018-01-18T01:08:31.041Z,19.23
2018-01-18T01:10:58.700Z,19.27
2018-01-18T01:13:26.374Z,21.70
2018-01-18T01:15:54.049Z,20.50
2018-01-18T01:18:21.718Z,20.77
2018-01-18T01:20:50.169Z,22.60
2018-01-18T01:23:17.842Z,27.67
2018-01-18T01:25:46.323Z,21.03
2018-01-18T01:28:14.013Z,22.30
2018-01-18T01:30:44.921Z,19.77
2018-01-18T01:33:12.586Z,22.23
2018-01-18T01:35:40.273Z,24.23
2018-01-18T01:38:07.959Z,24.43
2018-01-18T01:40:35.664Z,24.53
2018-01-18T01:43:03.368Z,23.27
2018-01-18T01:45:31.821Z,23.17
2018-01-18T01:47:59.524Z,22.37
2018-01-18T01:50:45.493Z,23.60
2018-01-18T01:53:13.192Z,26.97
2018-01-18T01:55:40.882Z,20.93
2018-01-18T01:58:08.580Z,27.57
2018-01-18T02:00:36.290Z,21.17
2018-01-18T02:03:03.991Z,25.83
2018-01-18T02:05:31.672Z,21.87
2018-01-18T02:08:00.106Z,24.43
2018-01-18T02:10:29.706Z,25.40
2018-01-18T02:12:57.379Z,21.80
2018-01-18T02:15:25.143Z,27.60
2018-01-18T02:17:53.495Z,23.70
2018-01-18T02:20:21.175Z,20.83
2018-01-18T02:22:48.854Z,26.93
2018-01-18T02:25:16.545Z,18.73
2018-01-18T02:27:44.206Z,23.77
2018-01-18T02:30:11.888Z,26.33
2018-01-18T02:32:39.729Z,29.83
2018-01-18T02:35:07.416Z,23.60
2018-01-18T02:37:35.077Z,19.60
2018-01-18T02:40:05.950Z,20.13
2018-01-18T02:42:33.627Z,17.73
2018-01-18T02:45:02.073Z,27.97
2018-01-18T02:47:30.536Z,22.67
2018-01-18T02:49:58.219Z,18.87
2018-01-18T02:52:26.816Z,28.83
2018-01-18T02:54:54.516Z,24.63
2018-01-18T02:57:22.126Z,24.07
2018-01-18T02:59:50.584Z,21.23
2018-01-18T03:02:18.606Z,21.67
2018-01-18T03:04:46.274Z,22.83
2018-01-18T03:07:13.955Z,18.87
2018-01-18T03:09:43.816Z,24.10
2018-01-18T03:12:11.826Z,19.80
2018-01-18T03:14:39.510Z,26.13
2018-01-18T03:17:07.193Z,19.97
2018-01-18T03:19:34.896Z,27.93
2018-01-18T03:22:02.618Z,26.33
2018-01-18T03:24:30.305Z,22.20
2018-01-18T03:26:58.759Z,23.30
2018-01-18T03:29:26.549Z,25.77
2018-01-18T03:31:54.255Z,23.20
2018-01-18T03:34:21.926Z,27.80
2018-01-18T03:36:49.618Z,20.30
2018-01-18T03:39:20.640Z,24.03
2018-01-18T03:41:48.297Z,23.23
2018-01-18T03:44:16.035Z,22.73
2018-01-18T03:46:43.691Z,18.47
2018-01-18T03:49:11.667Z,24.53
2018-01-18T03:51:39.353Z,17.27
2018-01-18T03:54:07.029Z,21.77
2018-01-18T03:56:34.723Z,19.97
2018-01-18T03:59:02.385Z,12.33
2018-01-18T04:01:33.883Z,18.43
2018-01-18T04:04:01.570Z,20.13
2018-01-18T04:06:29.243Z,19.20
2018-01-18T04:08:56.946Z,19.43
2018-01-18T04:11:24.650Z,17.10
2018-01-18T04:13:52.341Z,14.70
2018-01-18T04:16:20.036Z,15.27
2018-01-18T04:18:47.712Z,20.90
2018-01-18T04:21:15.417Z,22.47
2018-01-18T04:23:43.120Z,21.67
2018-01-18T04:26:11.575Z,17.40
2018-01-18T04:28:39.283Z,20.17
2018-01-18T04:31:08.941Z,18.53
2018-01-18T04:33:36.644Z,24.53
2018-01-18T04:36:04.308Z,23.67
2018-01-18T04:38:31.966Z,19.23
2018-01-18T04:40:59.631Z,19.60
2018-01-18T04:43:28.083Z,24.50
2018-01-18T04:45:55.763Z,27.23
2018-01-18T04:48:23.443Z,24.03
2018-01-18T04:50:51.869Z,19.80
2018-01-18T04:53:19.561Z,25.73
2018-01-18T04:55:47.262Z,23.20
2018-01-18T04:58:14.953Z,25.47
2018-01-18T05:00:42.809Z,29.17
2018-01-18T05:03:10.478Z,28.13
2018-01-18T05:05:38.173Z,22.17
2018-01-18T05:08:05.878Z,31.90
2018-01-18T05:10:33.572Z,30.57
2018-01-18T05:13:01.270Z,26.70
2018-01-18T05:15:28.978Z,27.30
2018-01-18T05:17:57.419Z,29.03
2018-01-18T05:20:25.085Z,26.37
2018-01-18T05:22:52.772Z,33.77
2018-01-18T05:25:21.251Z,25.30
2018-01-18T05:27:49.673Z,27.30
2018-01-18T05:30:17.487Z,30.63
2018-01-18T05:32:45.140Z,28.60
2018-01-18T05:35:12.789Z,20.87
2018-01-18T05:37:40.448Z,30.17
2018-01-18T05:40:08.075Z,23.43
2018-01-18T05:42:35.741Z,16.27
2018-01-18T05:45:03.418Z,20.07
2018-01-18T05:47:31.104Z,16.80
2018-01-18T05:49:58.785Z,22.37
2018-01-18T05:52:26.444Z,18.47
2018-01-18T05:54:54.467Z,15.00
2018-01-18T05:57:22.190Z,18.17
2018-01-18T05:59:50.030Z,15.97
2018-01-18T06:02:17.698Z,17.60
2018-01-18T06:04:45.373Z,13.70
2018-01-18T06:07:13.063Z,14.20
2018-01-18T06:09:40.752Z,9.87
2018-01-18T06:12:08.845Z,8.60
2018-01-18T06:14:36.526Z,7.73
2018-01-18T06:17:04.273Z,6.90
2018-01-18T06:19:31.930Z,8.17
2018-01-18T06:21:59.614Z,13.77
2018-01-18T06:24:27.288Z,9.63
2018-01-18T06:26:54.997Z,11.83
2018-01-18T06:29:23.454Z,12.57
2018-01-18T06:31:51.115Z,13.67
2018-01-18T06:34:18.787Z,13.47
2018-01-18T06:36:46.483Z,8.60
2018-01-18T06:39:14.142Z,9.63
2018-01-18T06:41:41.836Z,11.93
2018-01-18T06:44:09.514Z,8.80
2018-01-18T06:46:37.216Z,10.93
2018-01-18T06:49:05.656Z,11.83
2018-01-18T06:51:33.422Z,12.83
2018-01-18T06:54:01.068Z,11.37
2018-01-18T06:56:28.754Z,9.37
2018-01-18T06:58:56.419Z,8.33
2018-01-18T07:01:24.108Z,8.13
2018-01-18T07:03:52.551Z,7.73
2018-01-18T07:06:20.241Z,11.20
2018-01-18T07:08:48.316Z,6.67
2018-01-18T07:11:16.001Z,7.50
2018-01-18T07:13:43.662Z,9.77
2018-01-18T07:16:11.359Z,11.03
2018-01-18T07:18:39.013Z,11.23
2018-01-18T07:21:06.915Z,7.77
2018-01-18T07:23:34.591Z,7.87
2018-01-18T07:26:02.273Z,9.77
2018-01-18T07:28:30.723Z,7.37
2018-01-18T07:30:58.435Z,6.27
2018-01-18T07:33:26.120Z,6.83
2018-01-18T07:36:00.239Z,6.87
2018-01-18T07:38:27.916Z,6.77
2018-01-18T07:40:55.601Z,6.60
2018-01-18T07:43:23.272Z,6.00
2018-01-18T07:45:50.894Z,9.80
2018-01-18T07:48:18.562Z,5.63
2018-01-18T07:50:47.463Z,4.83
2018-01-18T07:53:15.165Z,4.53
2018-01-18T07:55:43.614Z,4.50
2018-01-18T07:58:11.291Z,5.87
2018-01-18T08:00:39.008Z,7.33
2018-01-18T08:03:12.272Z,5.17
2018-01-18T08:05:39.968Z,6.77
2018-01-18T08:08:07.674Z,5.63
2018-01-18T08:10:35.424Z,6.07
2018-01-18T08:13:03.072Z,7.83
2018-01-18T08:15:30.752Z,8.23
2018-01-18T08:17:58.459Z,10.17
2018-01-18T08:20:26.157Z,11.17
2018-01-18T08:22:53.831Z,7.20
2018-01-18T08:25:21.502Z,9.77
2018-01-18T08:27:49.168Z,10.97
2018-01-18T08:30:16.873Z,10.43
2018-01-18T08:32:45.316Z,8.93
2018-01-18T08:35:12.984Z,8.90
2018-01-18T08:37:40.656Z,10.40
2018-01-18T08:40:09.516Z,10.00
2018-01-18T08:42:37.168Z,8.60
2018-01-18T08:45:04.834Z,5.87
2018-01-18T08:47:32.498Z,5.60
2018-01-18T08:50:00.186Z,5.00
2018-01-18T08:52:27.868Z,5.33
2018-01-18T08:54:58.577Z,2.50
2018-01-18T08:57:26.376Z,5.20
2018-01-18T08:59:54.155Z,1.87
2018-01-18T09:02:21.819Z,2.77
2018-01-18T09:04:50.364Z,2.10
2018-01-18T09:07:18.022Z,2.10
2018-01-18T09:09:45.694Z,3.13
2018-01-18T09:12:13.344Z,5.10
2018-01-18T09:14:41.012Z,3.00
2018-01-18T09:17:08.703Z,5.40
2018-01-18T09:19:36.373Z,5.17
2018-01-18T09:22:04.060Z,5.17
2018-01-18T09:24:31.730Z,9.13
2018-01-18T09:26:59.407Z,5.77
2018-01-18T09:29:29.136Z,10.57
2018-01-18T09:31:56.814Z,13.57
2018-01-18T09:34:24.508Z,15.43
2018-01-18T09:36:52.189Z,8.17
2018-01-18T09:39:19.896Z,9.67
2018-01-18T09:41:47.581Z,12.00
2018-01-18T09:44:15.265Z,12.93
2018-01-18T09:46:45.590Z,11.00
2018-01-18T09:49:14.641Z,11.67
2018-01-18T09:51:44.863Z,9.70
2018-01-18T09:54:12.704Z,12.63
2018-01-18T09:56:40.292Z,8.40
2018-01-18T09:59:07.879Z,9.20
2018-01-18T10:01:35.523Z,11.10
2018-01-18T10:04:03.156Z,9.90
2018-01-18T10:06:30.825Z,7.37
2018-01-18T10:09:03.562Z,15.53
2018-01-18T10:11:37.894Z,15.43
2018-01-18T10:14:11.547Z,12.30
2018-01-18T10:16:45.363Z,13.83
2018-01-18T10:19:18.369Z,9.03
2018-01-18T10:21:52.118Z,7.10
2018-01-18T10:25:26.710Z,11.33
2018-01-18T10:28:00.961Z,9.90
2018-01-18T10:30:33.921Z,8.77
2018-01-18T10:33:08.903Z,10.07
2018-01-18T10:35:42.178Z,6.13
2018-01-18T10:38:13.246Z,6.50
2018-01-18T10:40:45.637Z,10.77
2018-01-18T10:43:16.631Z,7.00
2018-01-18T10:45:45.408Z,3.03
2018-01-18T10:48:16.306Z,8.40
2018-01-18T10:50:47.982Z,9.20
2018-01-18T10:53:21.738Z,11.90
2018-01-18T10:55:55.057Z,19.30
2018-01-18T10:58:26.907Z,7.43
2018-01-18T11:00:58.220Z,8.93
2018-01-18T11:03:29.785Z,5.10
2018-01-18T11:06:02.989Z,4.97
2018-01-18T11:08:33.928Z,5.70
2018-01-18T11:11:04.358Z,7.23
2018-01-18T11:13:34.252Z,4.10
2018-01-18T11:16:07.635Z,6.23
2018-01-18T11:18:39.670Z,5.10
2018-01-18T11:21:11.151Z,8.17
2018-01-18T11:23:40.009Z,2.63
2018-01-18T11:26:09.719Z,8.77
2018-01-18T11:28:38.125Z,5.03
2018-01-18T11:31:07.501Z,5.40
2018-01-18T11:33:38.586Z,5.10
2018-01-18T11:36:07.899Z,6.90
2018-01-18T11:38:41.144Z,6.53
2018-01-18T11:41:09.466Z,3.20
2018-01-18T11:43:41.968Z,8.00
2018-01-18T11:46:12.730Z,3.23
2018-01-18T11:48:44.512Z,4.23
2018-01-18T11:51:12.703Z,1.53
2018-01-18T11:53:41.036Z,3.47
2018-01-18T11:56:14.790Z,2.67
2018-01-18T11:58:43.909Z,3.97
2018-01-18T12:01:13.884Z,6.63
2018-01-18T12:03:44.296Z,3.77
2018-01-18T12:06:17.093Z,4.53
2018-01-18T12:08:47.805Z,2.00
2018-01-18T12:11:17.471Z,3.40
2018-01-18T12:13:45.281Z,2.20
2018-01-18T12:16:12.948Z,0.73
2018-01-18T12:19:24.072Z,0.93
2018-01-18T12:21:52.107Z,12.57
2018-01-18T12:24:19.700Z,3.40
2018-01-18T12:26:47.308Z,2.70
2018-01-18T12:29:14.993Z,2.97
2018-01-18T12:31:42.587Z,0.93
2018-01-18T12:35:40.088Z,1.90
2018-01-18T12:38:07.697Z,1.73
2018-01-18T12:41:08.451Z,0.70
2018-01-18T12:43:36.068Z,2.73
2018-01-18T12:46:03.689Z,0.80
2018-01-18T12:48:31.367Z,1.30
2018-01-18T12:50:59.828Z,1.27
2018-01-18T12:53:27.844Z,2.90
2018-01-18T12:55:55.502Z,1.00
2018-01-18T12:58:23.235Z,2.00
2018-01-18T13:00:52.086Z,1.43
2018-01-18T13:03:19.757Z,1.07
2018-01-18T13:05:47.596Z,1.43
2018-01-18T13:08:15.282Z,1.90
2018-01-18T13:10:43.264Z,2.80
2018-01-18T13:13:10.913Z,2.80
2018-01-18T13:15:38.718Z,3.07
2018-01-18T13:18:06.621Z,2.50
2018-01-18T13:20:34.725Z,3.03
2018-01-18T13:23:02.464Z,4.13
2018-01-18T13:25:30.173Z,2.20
2018-01-18T13:28:03.378Z,2.53
2018-01-18T13:30:35.557Z,1.87
2018-01-18T13:33:09.030Z,0.80
2018-01-18T13:35:42.828Z,2.03
2018-01-18T13:38:17.253Z,0.77
2018-01-18T13:40:49.671Z,1.07
2018-01-18T13:43:25.810Z,3.60
2018-01-18T13:46:01.399Z,0.50
2018-01-18T13:48:34.847Z,2.00
2018-01-18T13:51:07.747Z,1.53
2018-01-18T13:53:41.685Z,1.27
2018-01-18T13:56:16.747Z,1.20
2018-01-18T13:58:50.439Z,0.63
2018-01-18T14:01:23.364Z,1.13
2018-01-18T14:03:57.172Z,2.73
2018-01-18T14:06:30.237Z,3.07
2018-01-18T14:09:04.123Z,1.37
2018-01-18T14:11:37.364Z,3.07
2018-01-18T14:14:11.204Z,2.60
2018-01-18T14:16:44.100Z,0.80
2018-01-18T14:19:15.933Z,0.83
2018-01-18T14:21:49.048Z,2.07
2018-01-18T14:24:22.566Z,1.13
2018-01-18T14:26:51.510Z,2.30
2018-01-18T14:29:29.106Z,1.70
2018-01-18T14:32:00.704Z,1.07
2018-01-18T14:34:35.235Z,2.53
2018-01-18T14:37:10.879Z,1.70
2018-01-18T14:39:44.114Z,0.60
2018-01-18T14:42:13.834Z,1.80
2018-01-18T14:44:44.658Z,1.37
2018-01-18T14:47:18.721Z,1.00
2018-01-18T14:49:48.684Z,1.90
2018-01-18T14:52:22.384Z,1.13
2018-01-18T14:57:33.564Z,1.00
2018-01-18T15:00:07.214Z,0.93
2018-01-18T15:02:41.502Z,3.63
2018-01-18T15:05:15.645Z,0.80
2018-01-18T15:07:48.956Z,2.47
2018-01-18T15:10:23.309Z,0.30
2018-01-18T15:12:57.457Z,2.20
2018-01-18T15:15:31.948Z,3.43
2018-01-18T15:18:03.898Z,1.87
2018-01-18T15:20:38.134Z,1.13
2018-01-18T15:23:10.179Z,2.50
2018-01-18T15:25:45.981Z,2.83
2018-01-18T15:28:18.986Z,3.27
2018-01-18T15:30:53.281Z,1.90
2018-01-18T15:33:28.938Z,1.00
2018-01-18T15:36:03.377Z,2.60
2018-01-18T15:38:36.270Z,2.00
2018-01-18T15:41:11.120Z,2.73
2018-01-18T15:43:44.672Z,4.10
2018-01-18T15:46:12.656Z,2.27
2018-01-18T15:48:40.258Z,3.33
2018-01-18T15:51:07.905Z,4.17
2018-01-18T15:53:35.856Z,4.23
2018-01-18T15:56:08.813Z,4.47
2018-01-18T15:58:37.275Z,3.87
2018-01-18T16:01:06.060Z,5.63
2018-01-18T16:03:33.671Z,7.73
2018-01-18T16:06:01.290Z,6.00
2018-01-18T16:08:28.905Z,3.50
2018-01-18T16:10:56.551Z,4.57
2018-01-18T16:13:24.156Z,5.60
2018-01-18T16:15:52.519Z,4.93
2018-01-18T16:18:20.139Z,5.80
2018-01-18T16:20:49.074Z,4.30
2018-01-18T16:23:16.696Z,5.50
2018-01-18T16:25:44.289Z,5.77
2018-01-18T16:28:11.955Z,6.30
2018-01-18T16:30:39.580Z,4.70
2018-01-18T16:33:07.197Z,5.30
2018-01-18T16:35:34.862Z,4.33
2018-01-18T16:38:02.514Z,5.57
2018-01-18T16:40:30.206Z,6.13
2018-01-18T16:42:58.664Z,5.03
2018-01-18T16:45:26.356Z,4.70
2018-01-18T16:47:54.055Z,7.03
2018-01-18T16:50:21.870Z,9.37
2018-01-18T16:52:49.542Z,7.33
2018-01-18T16:55:17.154Z,10.17
2018-01-18T16:57:44.744Z,5.40
2018-01-18T17:00:12.368Z,5.80
2018-01-18T17:02:39.994Z,8.87
2018-01-18T17:05:07.703Z,7.73
2018-01-18T17:07:35.407Z,5.40
2018-01-18T17:10:03.128Z,4.87
2018-01-18T17:12:30.798Z,8.30
2018-01-18T17:14:58.492Z,6.17
2018-01-18T17:17:26.203Z,6.70
2018-01-18T17:19:55.367Z,4.87
2018-01-18T17:22:23.751Z,3.90
2018-01-18T17:24:52.195Z,5.10
2018-01-18T17:29:52.894Z,4.80
2018-01-18T17:32:20.598Z,5.20
2018-01-18T17:34:48.306Z,5.10
2018-01-18T17:37:16.216Z,10.10
2018-01-18T17:39:45.459Z,5.10
2018-01-18T17:42:14.110Z,5.10
2018-01-18T17:44:41.751Z,6.13
2018-01-18T17:47:09.666Z,5.70
2018-01-18T17:49:38.499Z,6.07
2018-01-18T17:52:06.471Z,5.57
2018-01-18T17:54:34.961Z,3.50
2018-01-18T17:57:02.598Z,5.77
2018-01-18T17:59:31.316Z,5.00
2018-01-18T18:01:59.010Z,3.77
2018-01-18T18:04:26.624Z,6.00
2018-01-18T18:06:54.371Z,4.83
2018-01-18T18:09:22.056Z,2.60
2018-01-18T18:11:50.442Z,2.73
2018-01-18T18:14:18.038Z,6.17
2018-01-18T18:16:45.678Z,3.67
2018-01-18T18:19:13.334Z,4.30
2018-01-18T18:21:40.948Z,5.60
2018-01-18T18:24:08.563Z,4.73
2018-01-18T18:26:36.179Z,1.30
2018-01-18T18:29:03.830Z,7.03
2018-01-18T18:31:31.419Z,3.03
2018-01-18T18:33:59.078Z,4.33
2018-01-18T18:36:27.492Z,4.30
2018-01-18T18:38:55.155Z,4.70
2018-01-18T18:41:26.862Z,4.33
2018-01-18T18:43:54.530Z,2.57
2018-01-18T18:46:22.237Z,4.33
2018-01-18T18:48:49.887Z,4.17
2018-01-18T18:51:17.556Z,6.83
2018-01-18T18:53:45.252Z,2.73
2018-01-18T18:56:12.932Z,4.47
2018-01-18T18:58:40.882Z,4.47
2018-01-18T19:01:08.494Z,2.23
2018-01-18T19:03:36.158Z,4.63
2018-01-18T19:06:03.856Z,6.27
2018-01-18T19:08:31.534Z,5.60
2018-01-18T19:11:02.410Z,7.17
2018-01-18T19:13:30.212Z,5.33
2018-01-18T19:15:57.899Z,5.07
2018-01-18T19:18:25.680Z,4.70
2018-01-18T19:20:53.323Z,6.33
2018-01-18T19:23:21.013Z,5.40
2018-01-18T19:25:48.732Z,5.10
2018-01-18T19:28:16.411Z,7.87
2018-01-18T19:30:44.118Z,8.23
2018-01-18T19:33:11.948Z,3.77
2018-01-18T19:35:39.560Z,6.77
2018-01-18T19:38:07.230Z,7.83
2018-01-18T19:40:38.062Z,4.63
2018-01-18T19:43:05.671Z,7.27
2018-01-18T19:45:33.300Z,6.13
2018-01-18T19:48:00.947Z,8.50
2018-01-18T19:50:28.635Z,5.17
2018-01-18T19:52:56.322Z,7.93
2018-01-18T19:55:24.036Z,9.37
2018-01-18T19:57:51.942Z,9.00
2018-01-18T20:00:19.618Z,5.13
2018-01-18T20:02:47.595Z,3.30
2018-01-18T20:05:15.290Z,10.23
2018-01-18T20:07:42.905Z,6.90
2018-01-18T20:10:12.712Z,9.88
2018-01-18T20:12:40.340Z,10.07
2018-01-18T20:15:07.987Z,9.80
2018-01-18T20:17:35.616Z,17.17
2018-01-18T20:20:03.496Z,10.80
2018-01-18T20:22:31.170Z,6.83
2018-01-18T20:24:59.986Z,9.83
2018-01-18T20:27:27.640Z,6.93
2018-01-18T20:29:55.353Z,10.53
2018-01-18T20:32:23.030Z,7.57
2018-01-18T20:34:50.642Z,9.80
2018-01-18T20:37:18.349Z,8.27
2018-01-18T20:42:49.060Z,10.20
2018-01-18T20:45:16.764Z,13.17
2018-01-18T20:47:44.468Z,6.77
2018-01-18T20:50:14.124Z,7.63
2018-01-18T20:52:41.724Z,10.93
2018-01-18T20:55:09.437Z,10.93
2018-01-18T20:57:37.815Z,12.37
2018-01-18T21:00:05.512Z,7.93
2018-01-18T21:02:33.236Z,14.33
2018-01-18T21:05:01.729Z,14.03
2018-01-18T21:07:30.622Z,8.07
2018-01-18T21:09:59.087Z,8.67
2018-01-18T21:12:26.790Z,10.77
2018-01-18T21:14:54.498Z,10.77
2018-01-18T21:17:22.964Z,12.03
2018-01-18T21:19:52.510Z,12.97
2018-01-18T21:22:20.938Z,11.27
2018-01-18T21:24:48.544Z,11.97
2018-01-18T21:27:16.180Z,11.40
2018-01-18T21:29:43.901Z,13.87
2018-01-18T21:32:11.562Z,14.50
2018-01-18T21:34:39.311Z,15.80
2018-01-18T21:37:06.958Z,10.60
2018-01-18T21:39:34.660Z,15.53
2018-01-18T21:42:02.696Z,13.30
2018-01-18T21:44:30.396Z,12.30
2018-01-18T21:46:58.084Z,16.67
2018-01-18T21:49:31.569Z,13.50
2018-01-18T21:51:59.188Z,11.47
2018-01-18T21:54:26.816Z,11.87
2018-01-18T21:56:54.457Z,13.43
2018-01-18T21:59:22.089Z,12.83
2018-01-18T22:01:49.722Z,10.87
2018-01-18T22:04:17.381Z,14.07
2018-01-18T22:06:45.085Z,12.43
2018-01-18T22:09:12.712Z,13.27
2018-01-18T22:11:40.350Z,12.33
2018-01-18T22:14:08.044Z,13.13
2018-01-18T22:16:35.737Z,11.13
2018-01-18T22:19:04.249Z,13.70
2018-01-18T22:21:31.937Z,14.47
2018-01-18T22:23:59.610Z,16.60
2018-01-18T22:26:27.296Z,15.50
2018-01-18T22:28:55.826Z,15.53
2018-01-18T22:31:26.935Z,11.93
2018-01-18T22:33:55.384Z,14.23
2018-01-18T22:36:23.043Z,15.37
2018-01-18T22:38:50.722Z,10.93
2018-01-18T22:41:22.056Z,13.60
2018-01-18T22:43:49.677Z,15.07
2018-01-18T22:46:17.347Z,13.57
2018-01-18T22:48:44.943Z,14.10
2018-01-18T22:51:12.543Z,13.40
2018-01-18T22:53:40.923Z,17.83
2018-01-18T22:56:08.585Z,15.53
2018-01-18T22:58:37.042Z,10.87
2018-01-18T23:01:04.744Z,17.17
2018-01-18T23:03:32.416Z,14.33
2018-01-18T23:06:00.109Z,15.40
2018-01-18T23:08:28.562Z,13.50
2018-01-18T23:11:10.531Z,15.50
2018-01-18T23:13:38.988Z,14.97
2018-01-18T23:16:06.591Z,13.00
2018-01-18T23:18:34.240Z,13.83
2018-01-18T23:21:01.923Z,15.33
2018-01-18T23:23:29.595Z,14.60
2018-01-18T23:25:57.269Z,13.17
2018-01-18T23:28:24.926Z,22.57
2018-01-18T23:30:52.643Z,17.00
2018-01-18T23:33:20.370Z,15.90
2018-01-18T23:35:48.039Z,12.00
2018-01-18T23:38:15.664Z,12.87
2018-01-18T23:40:44.335Z,16.27
2018-01-18T23:43:12.765Z,14.87
2018-01-18T23:45:40.458Z,15.17
2018-01-18T23:48:08.116Z,15.07
2018-01-18T23:50:35.757Z,14.27
2018-01-18T23:53:03.361Z,16.83
2018-01-18T23:55:31.748Z,14.70
2018-01-18T23:57:59.403Z,15.73
